Time;durP1;ratioP1;P1;durP2;ratioP2;P2;SDS_P1;SDS_P2;PMS_P1;PMS_P2;Temp;Humidity;BMP_temperature;BMP_pressure;BME280_temperature;BME280_humidity;BME280_pressure;Samples;Min_cycle;Max_cycle;Signal;HPM_P1;HPM_P2
2023/04/02 00:00:12;;;;;;;6.32;2.28;;;;;;;;;;5028286;28;20025;-65
2023/04/02 00:02:51;;;;;;;3.75;2.38;;;;;;;;;;5028352;28;20025;-66
2023/04/02 00:05:29;;;;;;;3.17;1.30;;;;;;;;;;5033333;28;20033;-64
2023/04/02 00:07:59;;;;;;;4.70;2.03;;;;;;;;;;5033396;28;20396;-65
2023/04/02 00:10:39;;;;;;;4.90;1.38;;;;;;;;;;5033327;28;20531;-64
2023/04/02 00:13:12;;;;;;;16.38;2.67;;;;;;;;;;5033249;28;20025;-65
2023/04/02 00:15:40;;;;;;;15.25;2.28;;;;;;;;;;5031617;28;20534;-65
2023/04/02 00:18:07;;;;;;;3.72;2.20;;;;;;;;;;5027878;28;20029;-64
2023/04/02 00:20:37;;;;;;;2.88;1.90;;;;;;;;;;5027873;28;20056;-65
2023/04/02 00:23:05;;;;;;;4.30;2.58;;;;;;;;;;5027886;28;20477;-64
2023/04/02 00:25:34;;;;;;;3.65;2.08;;;;;;;;;;5028430;28;20034;-64
2023/04/02 00:28:02;;;;;;;3.03;1.83;;;;;;;;;;5032862;28;20044;-66
2023/04/02 00:30:30;;;;;;;2.60;1.70;;;;;;;;;;5032576;28;20056;-64
2023/04/02 00:32:56;;;;;;;7.65;3.08;;;;;;;;;;5033074;28;20026;-66
2023/04/02 00:35:26;;;;;;;10.32;2.38;;;;;;;;;;5033086;28;20068;-64
2023/04/02 00:37:53;;;;;;;2.83;2.03;;;;;;;;;;5031850;28;20025;-64
2023/04/02 00:40:19;;;;;;;4.68;2.70;;;;;;;;;;5027480;28;20133;-66
2023/04/02 00:42:48;;;;;;;2.50;1.73;;;;;;;;;;5027560;28;20063;-66
2023/04/02 00:45:22;;;;;;;11.45;2.38;;;;;;;;;;5027461;28;20116;-65
2023/04/02 00:47:48;;;;;;;4.32;2.50;;;;;;;;;;5026991;28;20460;-65
2023/04/02 00:50:15;;;;;;;3.28;2.00;;;;;;;;;;5032761;28;20030;-67
2023/04/02 00:52:44;;;;;;;3.90;2.22;;;;;;;;;;5032617;28;20064;-65
2023/04/02 00:55:13;;;;;;;5.60;2.20;;;;;;;;;;5032460;28;20443;-64
2023/04/02 00:57:44;;;;;;;4.35;2.88;;;;;;;;;;5032431;28;20473;-65
2023/04/02 01:00:31;;;;;;;4.45;2.30;;;;;;;;;;5031986;28;20013;-66
2023/04/02 01:03:16;;;;;;;6.00;2.67;;;;;;;;;;5027036;28;20030;-65
2023/04/02 01:05:47;;;;;;;8.20;3.33;;;;;;;;;;5027126;28;20538;-65
2023/04/02 01:08:17;;;;;;;3.88;2.67;;;;;;;;;;5027303;28;20104;-65
2023/04/02 01:10:52;;;;;;;8.00;2.92;;;;;;;;;;5028049;28;20026;-65
2023/04/02 01:13:39;;;;;;;7.43;2.80;;;;;;;;;;5032305;28;20380;-65
2023/04/02 01:16:35;;;;;;;5.32;3.17;;;;;;;;;;5032210;28;20037;-65
2023/04/02 01:19:24;;;;;;;2.92;1.98;;;;;;;;;;5004822;28;20054;-65
2023/04/02 01:22:00;;;;;;;5.25;2.42;;;;;;;;;;5032522;28;20037;-66
2023/04/02 01:24:31;;;;;;;5.65;3.13;;;;;;;;;;5027580;28;20033;-64
2023/04/02 01:26:59;;;;;;;6.70;2.97;;;;;;;;;;5027227;28;20064;-64
2023/04/02 01:29:26;;;;;;;6.55;3.33;;;;;;;;;;5026846;28;20076;-63
2023/04/02 01:31:54;;;;;;;5.97;2.88;;;;;;;;;;5026911;28;20475;-66
2023/04/02 01:34:23;;;;;;;4.93;3.65;;;;;;;;;;5030635;28;20017;-65
2023/04/02 01:37:08;;;;;;;8.00;4.37;;;;;;;;;;5032047;28;20017;-64
2023/04/02 01:39:38;;;;;;;6.43;3.50;;;;;;;;;;5031993;28;20124;-65
2023/04/02 01:42:13;;;;;;;6.13;3.87;;;;;;;;;;5032147;28;20026;-64
2023/04/02 01:44:46;;;;;;;10.20;3.87;;;;;;;;;;5031974;28;20032;-65
2023/04/02 01:47:14;;;;;;;3.60;2.90;;;;;;;;;;5026839;28;20040;-65
2023/04/02 01:49:44;;;;;;;6.30;2.90;;;;;;;;;;5010014;28;20022;-64
2023/04/02 01:52:19;;;;;;;7.20;3.97;;;;;;;;;;5011053;28;20080;-65
2023/04/02 01:54:46;;;;;;;;;;;;;;;;;;5011231;28;20469;-64
2023/04/02 01:57:13;;;;;;;11.77;3.53;;;;;;;;;;5015703;28;19905;-64
2023/04/02 01:59:40;;;;;;;6.83;3.73;;;;;;;;;;5016133;28;20014;-65
2023/04/02 02:02:09;;;;;;;7.07;3.50;;;;;;;;;;5016170;28;20022;-64
2023/04/02 02:04:36;;;;;;;18.60;3.20;;;;;;;;;;5015969;28;20021;-64
2023/04/02 02:07:03;;;;;;;3.50;2.50;;;;;;;;;;5015768;28;20029;-64
2023/04/02 02:09:32;;;;;;;8.13;3.67;;;;;;;;;;5011055;28;20029;-64
2023/04/02 02:12:01;;;;;;;4.50;3.37;;;;;;;;;;5010735;28;20423;-64
2023/04/02 02:14:29;;;;;;;4.47;3.40;;;;;;;;;;5010644;28;20539;-64
2023/04/02 02:17:00;;;;;;;4.30;3.30;;;;;;;;;;5026913;28;20021;-64
2023/04/02 02:19:27;;;;;;;10.27;4.47;;;;;;;;;;5034808;28;20043;-64
2023/04/02 02:21:56;;;;;;;11.00;5.93;;;;;;;;;;5035285;28;20025;-64
2023/04/02 02:24:30;;;;;;;13.17;4.90;;;;;;;;;;5035453;28;20128;-64
2023/04/02 02:27:06;;;;;;;10.23;5.15;;;;;;;;;;5035529;28;20018;-65
2023/04/02 02:29:36;;;;;;;7.67;4.17;;;;;;;;;;5035471;28;20026;-65
2023/04/02 02:32:03;;;;;;;12.43;6.13;;;;;;;;;;5029995;28;20175;-63
2023/04/02 02:34:34;;;;;;;9.07;4.47;;;;;;;;;;5030061;28;20087;-63
2023/04/02 02:37:10;;;;;;;8.87;4.97;;;;;;;;;;5030118;28;20025;-64
2023/04/02 02:39:42;;;;;;;12.53;6.03;;;;;;;;;;5029760;28;20079;-63
2023/04/02 02:42:23;;;;;;;8.07;5.20;;;;;;;;;;5034978;28;20031;-63
2023/04/02 02:44:51;;;;;;;10.83;4.80;;;;;;;;;;5034948;28;20033;-64
2023/04/02 02:47:34;;;;;;;6.90;4.10;;;;;;;;;;5034990;28;20036;-63
2023/04/02 02:50:06;;;;;;;6.47;4.90;;;;;;;;;;5034936;28;20021;-63
2023/04/02 02:52:35;;;;;;;23.07;4.73;;;;;;;;;;5033922;28;20433;-63
2023/04/02 02:55:02;;;;;;;17.73;4.37;;;;;;;;;;5029634;28;20030;-64
2023/04/02 02:57:31;;;;;;;9.00;4.90;;;;;;;;;;5029724;28;20021;-63
2023/04/02 02:59:59;;;;;;;7.43;4.07;;;;;;;;;;5028370;28;20053;-63
2023/04/02 03:02:27;;;;;;;6.17;4.30;;;;;;;;;;5029682;28;20429;-66
2023/04/02 03:04:55;;;;;;;22.70;9.60;;;;;;;;;;5034707;28;20033;-65
2023/04/02 03:07:24;;;;;;;25.73;9.00;;;;;;;;;;5034558;28;20527;-63
2023/04/02 03:10:00;;;;;;;9.57;4.70;;;;;;;;;;5034568;28;20021;-65
2023/04/02 03:12:34;;;;;;;8.63;4.90;;;;;;;;;;5034254;28;20071;-65
2023/04/02 03:15:13;;;;;;;6.15;3.88;;;;;;;;;;5033153;28;20034;-65
2023/04/02 03:17:49;;;;;;;7.83;5.53;;;;;;;;;;5029250;28;20028;-65
2023/04/02 03:20:32;;;;;;;19.30;8.67;;;;;;;;;;5029167;28;20065;-65
2023/04/02 03:23:19;;;;;;;28.10;13.90;;;;;;;;;;5029066;28;20025;-64
2023/04/02 03:25:57;;;;;;;17.27;8.87;;;;;;;;;;5030994;28;20037;-64
2023/04/02 03:28:27;;;;;;;20.23;7.63;;;;;;;;;;5034391;28;20021;-65
2023/04/02 03:31:00;;;;;;;18.73;7.60;;;;;;;;;;5033913;28;20024;-64
2023/04/02 03:33:30;;;;;;;18.30;7.93;;;;;;;;;;5034360;28;20025;-65
2023/04/02 03:36:17;;;;;;;6.47;5.03;;;;;;;;;;5034278;28;20014;-63
2023/04/02 03:38:50;;;;;;;8.77;5.97;;;;;;;;;;5029891;28;20032;-64
2023/04/02 03:41:17;;;;;;;12.43;5.17;;;;;;;;;;5028571;28;20095;-64
2023/04/02 03:43:46;;;;;;;8.97;4.67;;;;;;;;;;5026876;28;20242;-65
2023/04/02 03:46:36;;;;;;;7.53;5.23;;;;;;;;;;5026656;28;20038;-65
2023/04/02 03:49:07;;;;;;;9.43;4.23;;;;;;;;;;5032891;28;20394;-64
2023/04/02 03:51:39;;;;;;;5.60;3.50;;;;;;;;;;5032050;28;20040;-63
2023/04/02 03:54:10;;;;;;;7.33;5.30;;;;;;;;;;5033050;28;20408;-64
2023/04/02 03:56:40;;;;;;;18.53;6.17;;;;;;;;;;5033705;28;20029;-65
2023/04/02 03:59:16;;;;;;;6.67;4.40;;;;;;;;;;5033356;28;20017;-66
2023/04/02 04:01:45;;;;;;;12.10;5.10;;;;;;;;;;5028247;28;20026;-65
2023/04/02 04:04:17;;;;;;;8.60;4.43;;;;;;;;;;5028306;28;20018;-65
2023/04/02 04:06:46;;;;;;;7.73;4.50;;;;;;;;;;5028415;28;20059;-64
2023/04/02 04:09:30;;;;;;;21.40;5.23;;;;;;;;;;5028174;28;20024;-66
2023/04/02 04:12:09;;;;;;;3.33;2.67;;;;;;;;;;5031519;28;20476;-65
2023/04/02 04:14:38;;;;;;;4.93;4.27;;;;;;;;;;5033223;28;20021;-64
2023/04/02 04:17:23;;;;;;;9.77;5.47;;;;;;;;;;5033254;28;20056;-64
2023/04/02 04:20:13;;;;;;;7.65;4.88;;;;;;;;;;5033261;28;20487;-64
2023/04/02 04:22:40;;;;;;;20.20;5.30;;;;;;;;;;5016437;28;20064;-64
2023/04/02 04:25:17;;;;;;;12.30;4.97;;;;;;;;;;5027447;28;20029;-64
2023/04/02 04:27:53;;;;;;;9.40;4.20;;;;;;;;;;5027902;28;20365;-64
2023/04/02 04:30:24;;;;;;;10.73;4.43;;;;;;;;;;5027886;28;20056;-64
2023/04/02 04:32:57;;;;;;;5.47;3.37;;;;;;;;;;5029458;28;20476;-63
2023/04/02 04:35:30;;;;;;;6.00;4.10;;;;;;;;;;5033307;28;20345;-64
2023/04/02 04:37:58;;;;;;;11.00;4.00;;;;;;;;;;5032817;28;20571;-63
2023/04/02 04:40:26;;;;;;;6.07;4.33;;;;;;;;;;5032922;28;20041;-66
2023/04/02 04:42:54;;;;;;;6.67;3.97;;;;;;;;;;5032955;28;20026;-65
2023/04/02 04:45:21;;;;;;;11.40;5.10;;;;;;;;;;5028689;28;20033;-63
2023/04/02 04:47:58;;;;;;;6.30;4.13;;;;;;;;;;5007163;28;20075;-65
2023/04/02 04:50:34;;;;;;;14.23;5.90;;;;;;;;;;5007515;28;20071;-64
2023/04/02 04:53:08;;;;;;;17.50;5.53;;;;;;;;;;5007875;28;20049;-66
2023/04/02 04:55:37;;;;;;;3.93;2.67;;;;;;;;;;5016278;28;20442;-65
2023/04/02 04:58:10;;;;;;;8.47;4.93;;;;;;;;;;5032668;28;20041;-63
2023/04/02 05:01:02;;;;;;;8.97;5.00;;;;;;;;;;5032101;28;20032;-64
2023/04/02 05:03:37;;;;;;;17.40;4.80;;;;;;;;;;4985678;28;20044;-63
2023/04/02 05:06:08;;;;;;;10.68;6.00;;;;;;;;;;5012671;28;20033;-63
2023/04/02 05:08:36;;;;;;;12.73;5.57;;;;;;;;;;5008661;28;20018;-63
2023/04/02 05:11:20;;;;;;;7.80;5.07;;;;;;;;;;5007408;28;20029;-64
2023/04/02 05:14:05;;;;;;;11.70;6.57;;;;;;;;;;5007422;28;20029;-65
2023/04/02 05:16:44;;;;;;;10.48;5.70;;;;;;;;;;5007448;28;20029;-65
2023/04/02 05:19:17;;;;;;;6.77;4.83;;;;;;;;;;5012250;28;20018;-65
2023/04/02 05:21:56;;;;;;;7.43;5.23;;;;;;;;;;5012462;28;20029;-64
2023/04/02 05:24:42;;;;;;;12.30;5.40;;;;;;;;;;5011784;28;20018;-64
2023/04/02 05:27:19;;;;;;;11.23;5.57;;;;;;;;;;5012330;28;20026;-64
2023/04/02 05:29:58;;;;;;;9.47;4.63;;;;;;;;;;5017820;28;20071;-64
2023/04/02 05:32:33;;;;;;;7.00;4.77;;;;;;;;;;5027082;28;20516;-64
2023/04/02 05:35:05;;;;;;;6.93;4.37;;;;;;;;;;5023648;28;20033;-64
2023/04/02 05:37:32;;;;;;;12.07;6.57;;;;;;;;;;5017490;28;20021;-64
2023/04/02 05:40:05;;;;;;;6.47;4.47;;;;;;;;;;5027811;28;20526;-64
2023/04/02 05:42:34;;;;;;;9.53;5.00;;;;;;;;;;5031642;28;20021;-64
2023/04/02 05:45:27;;;;;;;10.00;5.27;;;;;;;;;;5031780;28;20041;-64
2023/04/02 05:48:00;;;;;;;7.37;4.40;;;;;;;;;;5027301;28;20046;-65
2023/04/02 05:50:29;;;;;;;8.40;4.43;;;;;;;;;;5012455;28;20077;-65
2023/04/02 05:52:58;;;;;;;5.47;3.27;;;;;;;;;;5009745;28;20057;-64
2023/04/02 05:55:37;;;;;;;5.83;4.30;;;;;;;;;;5012611;28;20049;-64
2023/04/02 05:58:16;;;;;;;8.33;5.63;;;;;;;;;;5013515;28;20029;-64
2023/04/02 06:00:53;;;;;;;14.63;7.17;;;;;;;;;;5026531;28;20029;-65
2023/04/02 06:03:22;;;;;;;7.30;5.40;;;;;;;;;;5027776;28;20028;-65
2023/04/02 06:05:51;;;;;;;9.90;7.03;;;;;;;;;;5017812;28;20060;-64
2023/04/02 06:08:22;;;;;;;8.90;6.87;;;;;;;;;;5031778;28;20044;-65
2023/04/02 06:11:12;;;;;;;8.07;6.00;;;;;;;;;;5031647;28;20376;-64
2023/04/02 06:13:39;;;;;;;11.33;5.03;;;;;;;;;;5025641;28;20354;-65
2023/04/02 06:16:06;;;;;;;7.93;5.90;;;;;;;;;;5015240;28;20385;-64
2023/04/02 06:18:34;;;;;;;10.67;5.57;;;;;;;;;;5026815;28;20499;-64
2023/04/02 06:21:01;;;;;;;6.83;4.77;;;;;;;;;;5026782;28;20476;-64
2023/04/02 06:23:31;;;;;;;8.07;6.00;;;;;;;;;;5025835;28;20026;-64
2023/04/02 06:26:01;;;;;;;6.27;4.27;;;;;;;;;;5029794;28;20026;-64
2023/04/02 06:28:33;;;;;;;9.27;6.40;;;;;;;;;;5013910;28;20439;-64
2023/04/02 06:31:02;;;;;;;5.77;4.63;;;;;;;;;;5031555;28;20045;-64
2023/04/02 06:33:29;;;;;;;6.57;4.77;;;;;;;;;;5029608;28;20049;-64
2023/04/02 06:35:56;;;;;;;7.13;4.30;;;;;;;;;;5014325;28;20424;-64
2023/04/02 06:38:26;;;;;;;6.87;5.37;;;;;;;;;;5011988;28;20018;-65
2023/04/02 06:40:56;;;;;;;16.80;5.70;;;;;;;;;;5010362;28;20064;-64
2023/04/02 06:43:44;;;;;;;9.43;5.60;;;;;;;;;;5010330;28;20481;-64
2023/04/02 06:46:18;;;;;;;8.77;6.70;;;;;;;;;;5010000;28;20033;-64
2023/04/02 06:48:47;;;;;;;8.97;6.67;;;;;;;;;;5013647;28;20101;-64
2023/04/02 06:51:15;;;;;;;10.97;5.70;;;;;;;;;;5015328;28;20034;-64
2023/04/02 06:53:46;;;;;;;8.90;6.07;;;;;;;;;;5016572;28;20026;-64
2023/04/02 06:56:21;;;;;;;7.20;5.20;;;;;;;;;;5015206;28;20026;-64
2023/04/02 06:58:47;;;;;;;7.22;4.45;;;;;;;;;;5015215;28;20075;-64
2023/04/02 07:01:19;;;;;;;6.70;5.43;;;;;;;;;;5011048;28;20037;-64
2023/04/02 07:03:46;;;;;;;6.80;5.67;;;;;;;;;;5009764;28;20029;-64
2023/04/02 07:06:16;;;;;;;13.53;6.23;;;;;;;;;;5029439;28;20404;-64
2023/04/02 07:08:43;;;;;;;8.40;5.70;;;;;;;;;;5029387;28;20034;-64
2023/04/02 07:11:17;;;;;;;4.80;4.30;;;;;;;;;;5033097;28;20078;-64
2023/04/02 07:13:44;;;;;;;15.33;4.80;;;;;;;;;;5034645;28;20472;-64
2023/04/02 07:16:17;;;;;;;7.90;5.33;;;;;;;;;;5015238;28;20025;-63
2023/04/02 07:18:44;;;;;;;12.00;6.20;;;;;;;;;;5014509;28;20485;-64
2023/04/02 07:21:11;;;;;;;13.90;6.10;;;;;;;;;;5014589;28;20084;-64
2023/04/02 07:23:38;;;;;;;7.47;5.03;;;;;;;;;;5010801;28;20049;-64
2023/04/02 07:26:08;;;;;;;8.27;6.23;;;;;;;;;;5009311;28;20073;-64
2023/04/02 07:28:35;;;;;;;8.20;5.23;;;;;;;;;;5009556;28;20079;-64
2023/04/02 07:31:01;;;;;;;8.27;5.27;;;;;;;;;;5026504;28;20556;-64
2023/04/02 07:33:29;;;;;;;7.50;5.57;;;;;;;;;;5032039;28;20027;-64
2023/04/02 07:35:57;;;;;;;6.93;4.80;;;;;;;;;;5017311;28;20084;-64
2023/04/02 07:38:24;;;;;;;6.50;4.77;;;;;;;;;;5014749;28;20025;-64
2023/04/02 07:40:51;;;;;;;6.30;5.07;;;;;;;;;;5014508;28;20034;-64
2023/04/02 07:43:18;;;;;;;17.17;5.07;;;;;;;;;;5014165;28;20018;-64
2023/04/02 07:45:44;;;;;;;6.33;4.50;;;;;;;;;;5025458;28;20111;-64
2023/04/02 07:48:13;;;;;;;7.37;4.83;;;;;;;;;;5028630;28;20380;-64
2023/04/02 07:50:39;;;;;;;22.33;3.40;;;;;;;;;;5028902;28;20022;-64
2023/04/02 07:53:07;;;;;;;5.27;3.93;;;;;;;;;;5028949;28;20379;-64
2023/04/02 07:55:34;;;;;;;5.27;4.07;;;;;;;;;;5013479;28;20547;-65
2023/04/02 07:58:01;;;;;;;7.20;4.00;;;;;;;;;;5014083;28;20380;-63
2023/04/02 08:00:28;;;;;;;4.97;3.50;;;;;;;;;;5013799;28;20030;-64
2023/04/02 08:02:55;;;;;;;10.03;4.50;;;;;;;;;;5014020;28;20018;-64
2023/04/02 08:05:22;;;;;;;4.90;3.70;;;;;;;;;;5030605;28;20040;-65
2023/04/02 08:07:55;;;;;;;10.30;4.40;;;;;;;;;;5031384;28;20101;-64
2023/04/02 08:10:22;;;;;;;4.60;3.10;;;;;;;;;;5028626;28;20025;-63
2023/04/02 08:12:49;;;;;;;4.40;3.40;;;;;;;;;;5027998;28;20021;-65
2023/04/02 08:15:16;;;;;;;5.37;4.27;;;;;;;;;;5028131;28;20029;-65
2023/04/02 08:17:43;;;;;;;7.60;4.77;;;;;;;;;;5029783;28;20380;-65
2023/04/02 08:20:20;;;;;;;7.17;5.13;;;;;;;;;;5033317;28;20026;-64
2023/04/02 08:22:48;;;;;;;9.73;5.07;;;;;;;;;;5033555;28;20101;-64
2023/04/02 08:25:15;;;;;;;6.83;5.00;;;;;;;;;;5032896;28;20050;-65
2023/04/02 08:27:42;;;;;;;7.27;4.40;;;;;;;;;;5032883;28;20030;-65
2023/04/02 08:30:09;;;;;;;4.27;3.57;;;;;;;;;;5030913;28;20124;-64
2023/04/02 08:32:36;;;;;;;7.23;4.07;;;;;;;;;;5028296;28;20052;-64
2023/04/02 08:35:03;;;;;;;10.13;4.13;;;;;;;;;;5014118;28;20026;-65
2023/04/02 08:37:29;;;;;;;4.83;4.07;;;;;;;;;;5008282;28;20105;-64
2023/04/02 08:39:56;;;;;;;6.50;2.93;;;;;;;;;;5009342;28;20034;-64
2023/04/02 08:42:39;;;;;;;5.33;3.90;;;;;;;;;;5013429;28;20373;-64
2023/04/02 08:45:17;;;;;;;5.63;4.00;;;;;;;;;;5013173;28;20041;-64
2023/04/02 08:47:46;;;;;;;8.17;4.07;;;;;;;;;;5013287;28;20025;-64
2023/04/02 08:50:31;;;;;;;4.47;3.33;;;;;;;;;;4995671;28;20373;-65
2023/04/02 08:52:59;;;;;;;4.17;3.37;;;;;;;;;;5010132;28;20029;-65
2023/04/02 08:55:36;;;;;;;2.90;2.30;;;;;;;;;;5023602;28;20052;-65
2023/04/02 08:58:21;;;;;;;7.03;4.63;;;;;;;;;;5011689;28;20041;-65
2023/04/02 09:00:47;;;;;;;;;;;;;;;;;;5008354;28;20068;-64
2023/04/02 09:03:17;;;;;;;4.07;3.40;;;;;;;;;;5010572;28;20336;-64
2023/04/02 09:05:45;;;;;;;4.47;2.40;;;;;;;;;;5012558;28;20489;-64
2023/04/02 09:08:19;;;;;;;4.27;3.27;;;;;;;;;;5012667;28;20072;-65
2023/04/02 09:10:51;;;;;;;12.38;5.15;;;;;;;;;;5012985;28;20030;-64
2023/04/02 09:13:23;;;;;;;9.47;4.07;;;;;;;;;;5012731;28;20491;-64
2023/04/02 09:15:52;;;;;;;6.17;4.30;;;;;;;;;;5009159;28;20045;-64
2023/04/02 09:18:19;;;;;;;9.40;3.97;;;;;;;;;;5007383;28;20041;-64
2023/04/02 09:20:48;;;;;;;9.70;5.53;;;;;;;;;;5007535;28;20519;-65
2023/04/02 09:23:22;;;;;;;5.63;3.60;;;;;;;;;;5007667;28;20046;-65
2023/04/02 09:25:50;;;;;;;3.50;2.63;;;;;;;;;;5010328;28;20503;-65
2023/04/02 09:28:19;;;;;;;7.97;4.90;;;;;;;;;;5013568;28;20105;-64
2023/04/02 09:31:00;;;;;;;6.73;4.03;;;;;;;;;;5027176;28;20029;-65
2023/04/02 09:33:43;;;;;;;7.23;4.20;;;;;;;;;;5032376;28;20419;-64
2023/04/02 09:36:39;;;;;;;4.60;3.40;;;;;;;;;;5020494;28;20365;-65
2023/04/02 09:39:06;;;;;;;3.40;2.57;;;;;;;;;;5010015;28;20049;-64
2023/04/02 09:41:34;;;;;;;4.23;3.57;;;;;;;;;;5027253;28;20077;-65
2023/04/02 09:44:20;;;;;;;6.67;4.67;;;;;;;;;;5026948;28;20052;-64
2023/04/02 09:46:51;;;;;;;4.27;3.17;;;;;;;;;;5026695;28;20480;-65
2023/04/02 09:49:19;;;;;;;12.53;4.33;;;;;;;;;;5023911;28;20113;-66
2023/04/02 09:51:46;;;;;;;5.97;3.13;;;;;;;;;;5012592;28;20030;-65
2023/04/02 09:54:16;;;;;;;3.33;2.83;;;;;;;;;;5017883;28;20018;-65
2023/04/02 09:57:09;;;;;;;5.27;2.97;;;;;;;;;;5032130;28;20021;-64
2023/04/02 09:59:36;;;;;;;9.50;4.60;;;;;;;;;;5028296;28;20029;-64
2023/04/02 10:02:04;;;;;;;4.00;3.07;;;;;;;;;;5026463;28;20021;-64
2023/04/02 10:04:46;;;;;;;3.97;3.07;;;;;;;;;;5009502;28;20396;-64
2023/04/02 10:07:34;;;;;;;3.67;2.20;;;;;;;;;;5026772;28;20028;-64
2023/04/02 10:10:16;;;;;;;3.97;3.50;;;;;;;;;;5029570;28;20025;-64
2023/04/02 10:12:44;;;;;;;3.37;2.87;;;;;;;;;;5035835;28;20025;-64
2023/04/02 10:15:20;;;;;;;6.70;3.77;;;;;;;;;;5035859;28;20018;-64
2023/04/02 10:17:50;;;;;;;3.73;2.97;;;;;;;;;;5035533;28;20028;-64
2023/04/02 10:20:22;;;;;;;3.97;2.67;;;;;;;;;;5035241;28;20061;-65
2023/04/02 10:22:49;;;;;;;9.97;3.23;;;;;;;;;;5032748;28;20025;-65
2023/04/02 10:25:16;;;;;;;5.00;3.40;;;;;;;;;;5030293;28;20152;-66
2023/04/02 10:27:48;;;;;;;8.00;4.07;;;;;;;;;;5030483;28;20380;-63
2023/04/02 10:30:20;;;;;;;4.80;3.53;;;;;;;;;;5029945;28;20029;-64
2023/04/02 10:33:12;;;;;;;3.43;2.97;;;;;;;;;;5032422;28;20041;-64
2023/04/02 10:36:02;;;;;;;3.67;2.77;;;;;;;;;;5015405;28;20283;-64
2023/04/02 10:38:41;;;;;;;4.93;3.30;;;;;;;;;;5015658;28;20808;-64
2023/04/02 10:41:10;;;;;;;7.37;4.00;;;;;;;;;;5015651;28;20283;-63
2023/04/02 10:43:53;;;;;;;5.50;3.60;;;;;;;;;;5015396;28;20297;-64
2023/04/02 10:46:32;;;;;;;5.20;2.63;;;;;;;;;;5010206;28;20291;-64
2023/04/02 10:49:21;;;;;;;5.87;3.53;;;;;;;;;;5012033;28;20026;-64
2023/04/02 10:51:47;;;;;;;7.27;4.67;;;;;;;;;;5029866;28;20777;-64
2023/04/02 10:54:26;;;;;;;8.03;3.67;;;;;;;;;;5024136;28;20726;-63
2023/04/02 10:56:54;;;;;;;11.60;4.97;;;;;;;;;;5015369;28;20346;-64
2023/04/02 10:59:26;;;;;;;8.73;4.73;;;;;;;;;;5014538;28;20263;-64
2023/04/02 11:01:55;;;;;;;8.30;4.70;;;;;;;;;;5015204;28;20584;-64
2023/04/02 11:04:31;;;;;;;3.27;2.67;;;;;;;;;;5015173;28;20256;-64
2023/04/02 11:06:57;;;;;;;;;;;;;;;;;;4996409;28;20283;-63
2023/04/02 11:09:27;;;;;;;4.77;4.10;;;;;;;;;;5009951;28;20293;-64
2023/04/02 11:11:56;;;;;;;3.97;3.53;;;;;;;;;;5009940;28;20778;-64
2023/04/02 11:14:24;;;;;;;9.90;4.47;;;;;;;;;;5009711;28;20267;-65
2023/04/02 11:16:52;;;;;;;3.73;3.33;;;;;;;;;;5010594;28;20317;-64
2023/04/02 11:19:19;;;;;;;4.63;3.77;;;;;;;;;;5014832;28;20263;-64
2023/04/02 11:21:47;;;;;;;4.40;3.53;;;;;;;;;;5013723;28;20875;-65
2023/04/02 11:24:28;;;;;;;3.13;2.53;;;;;;;;;;5014751;28;20309;-64
2023/04/02 11:27:04;;;;;;;3.40;2.53;;;;;;;;;;5014030;28;20267;-64
2023/04/02 11:29:33;;;;;;;4.67;3.60;;;;;;;;;;5017142;28;20270;-64
2023/04/02 11:32:18;;;;;;;4.77;2.67;;;;;;;;;;5029090;28;20741;-64
2023/04/02 11:34:45;;;;;;;4.90;2.75;;;;;;;;;;5014175;28;20271;-64
2023/04/02 11:37:30;;;;;;;3.67;2.63;;;;;;;;;;5009342;28;20033;-63
2023/04/02 11:39:58;;;;;;;2.90;2.35;;;;;;;;;;5011362;28;20291;-62
2023/04/02 11:42:34;;;;;;;5.87;3.53;;;;;;;;;;5014346;28;20066;-64
2023/04/02 11:45:20;;;;;;;4.60;3.30;;;;;;;;;;5014038;28;20753;-64
2023/04/02 11:48:06;;;;;;;6.00;3.95;;;;;;;;;;5014458;28;20254;-64
2023/04/02 11:50:37;;;;;;;3.10;2.63;;;;;;;;;;5014325;28;20120;-64
2023/04/02 11:53:13;;;;;;;4.53;3.23;;;;;;;;;;5009801;28;20587;-64
2023/04/02 11:55:41;;;;;;;4.20;2.60;;;;;;;;;;5026553;28;20341;-64
2023/04/02 11:58:26;;;;;;;7.13;4.17;;;;;;;;;;5028767;28;20255;-64
2023/04/02 12:00:59;;;;;;;8.27;4.43;;;;;;;;;;5028166;28;20267;-64
2023/04/02 12:03:27;;;;;;;5.33;4.43;;;;;;;;;;5033365;28;20432;-63
2023/04/02 12:06:05;;;;;;;5.53;4.10;;;;;;;;;;5032831;28;20409;-65
2023/04/02 12:08:35;;;;;;;5.17;2.97;;;;;;;;;;5033561;28;20317;-64
2023/04/02 12:11:02;;;;;;;3.87;2.93;;;;;;;;;;5033613;28;20255;-64
2023/04/02 12:13:41;;;;;;;3.63;2.93;;;;;;;;;;5033398;28;20753;-64
2023/04/02 12:16:08;;;;;;;8.17;4.30;;;;;;;;;;5028098;28;20259;-63
2023/04/02 12:18:35;;;;;;;3.27;2.10;;;;;;;;;;5028110;28;20747;-63
2023/04/02 12:21:02;;;;;;;2.97;2.37;;;;;;;;;;5028206;28;20262;-64
2023/04/02 12:23:30;;;;;;;10.30;2.97;;;;;;;;;;5028293;28;20269;-64
2023/04/02 12:26:23;;;;;;;4.73;2.03;;;;;;;;;;5032441;28;20305;-64
2023/04/02 12:28:50;;;;;;;6.13;3.63;;;;;;;;;;5032690;28;20255;-64
2023/04/02 12:31:17;;;;;;;9.10;3.53;;;;;;;;;;5032930;28;20242;-64
2023/04/02 12:33:44;;;;;;;6.10;3.03;;;;;;;;;;5033102;28;20606;-63
2023/04/02 12:36:13;;;;;;;6.73;3.37;;;;;;;;;;5030088;28;20254;-64
2023/04/02 12:38:45;;;;;;;16.77;3.53;;;;;;;;;;5008032;28;20272;-63
2023/04/02 12:41:23;;;;;;;5.23;3.43;;;;;;;;;;5008260;28;20346;-63
2023/04/02 12:44:00;;;;;;;3.70;2.53;;;;;;;;;;5008113;28;20252;-64
2023/04/02 12:46:27;;;;;;;5.83;2.77;;;;;;;;;;5012206;28;20290;-63
2023/04/02 12:48:55;;;;;;;3.37;2.80;;;;;;;;;;5032790;28;20346;-63
2023/04/02 12:51:22;;;;;;;5.33;3.33;;;;;;;;;;5032732;28;20261;-63
2023/04/02 12:53:50;;;;;;;3.60;2.83;;;;;;;;;;5030004;28;20341;-63
2023/04/02 12:56:20;;;;;;;14.03;3.20;;;;;;;;;;5012666;28;20313;-63
2023/04/02 12:59:00;;;;;;;9.07;3.83;;;;;;;;;;5011770;28;20282;-63
2023/04/02 13:01:28;;;;;;;3.67;2.57;;;;;;;;;;5016863;28;20293;-63
2023/04/02 13:04:02;;;;;;;33.13;3.23;;;;;;;;;;5027535;28;20780;-63
2023/04/02 13:06:29;;;;;;;3.97;2.97;;;;;;;;;;5027382;28;20294;-64
2023/04/02 13:08:56;;;;;;;3.73;3.10;;;;;;;;;;5028032;28;20266;-63
2023/04/02 13:11:33;;;;;;;5.53;3.27;;;;;;;;;;5032327;28;20270;-63
2023/04/02 13:14:02;;;;;;;3.47;2.70;;;;;;;;;;5032495;28;20263;-63
2023/04/02 13:16:37;;;;;;;3.10;2.20;;;;;;;;;;5022711;28;20758;-64
2023/04/02 13:19:11;;;;;;;4.80;2.80;;;;;;;;;;5012555;28;20271;-64
2023/04/02 13:21:38;;;;;;;11.70;2.50;;;;;;;;;;5010134;28;20029;-64
2023/04/02 13:24:05;;;;;;;3.73;2.17;;;;;;;;;;5007530;28;20038;-64
2023/04/02 13:26:31;;;;;;;5.03;2.63;;;;;;;;;;5015788;28;20114;-64
2023/04/02 13:29:03;;;;;;;5.20;2.20;;;;;;;;;;5027118;28;20103;-63
2023/04/02 13:31:31;;;;;;;2.70;2.10;;;;;;;;;;5018215;28;20030;-65
2023/04/02 13:33:58;;;;;;;2.50;2.00;;;;;;;;;;5032054;28;20022;-67
2023/04/02 13:36:27;;;;;;;19.37;3.07;;;;;;;;;;5031522;28;20037;-65
2023/04/02 13:38:55;;;;;;;7.90;4.03;;;;;;;;;;5022967;28;20026;-65
2023/04/02 13:41:29;;;;;;;4.40;3.10;;;;;;;;;;5012512;28;20072;-65
2023/04/02 13:43:58;;;;;;;4.68;3.47;;;;;;;;;;5010310;28;20489;-65
2023/04/02 13:46:29;;;;;;;4.03;2.93;;;;;;;;;;5011227;28;20072;-64
2023/04/02 13:48:56;;;;;;;4.47;2.87;;;;;;;;;;5019341;28;20030;-65
2023/04/02 13:51:24;;;;;;;3.77;2.90;;;;;;;;;;5030157;28;20025;-65
2023/04/02 13:53:54;;;;;;;3.37;2.10;;;;;;;;;;5029495;28;20026;-65
2023/04/02 13:56:22;;;;;;;3.43;2.70;;;;;;;;;;5016312;28;20527;-65
2023/04/02 13:58:49;;;;;;;3.40;2.63;;;;;;;;;;5023307;28;20021;-65
2023/04/02 14:01:16;;;;;;;3.47;2.30;;;;;;;;;;5035881;28;20067;-64
2023/04/02 14:03:44;;;;;;;14.00;3.50;;;;;;;;;;5036045;28;20022;-63
2023/04/02 14:06:30;;;;;;;4.63;2.77;;;;;;;;;;5034000;28;20476;-65
2023/04/02 14:09:00;;;;;;;4.27;2.83;;;;;;;;;;5022587;28;20117;-66
2023/04/02 14:11:33;;;;;;;5.90;3.37;;;;;;;;;;5010827;28;20116;-66
2023/04/02 14:14:12;;;;;;;11.00;4.73;;;;;;;;;;5010997;28;20025;-64
2023/04/02 14:16:49;;;;;;;11.80;4.43;;;;;;;;;;5013159;28;20036;-64
2023/04/02 14:19:19;;;;;;;5.67;3.97;;;;;;;;;;5025343;28;20373;-64
2023/04/02 14:22:16;;;;;;;6.27;4.97;;;;;;;;;;5032164;28;20037;-64
2023/04/02 14:24:48;;;;;;;7.87;5.40;;;;;;;;;;5003311;28;20457;-65
2023/04/02 14:27:24;;;;;;;7.27;5.23;;;;;;;;;;5015703;28;20026;-65
2023/04/02 14:29:57;;;;;;;6.27;4.67;;;;;;;;;;5018276;28;20033;-65
2023/04/02 14:32:28;;;;;;;6.37;5.40;;;;;;;;;;5023757;28;20500;-65
2023/04/02 14:34:55;;;;;;;7.77;5.17;;;;;;;;;;5029669;28;20060;-65
2023/04/02 14:37:28;;;;;;;6.87;4.57;;;;;;;;;;5030175;28;20421;-65
2023/04/02 14:39:56;;;;;;;6.13;4.47;;;;;;;;;;5034417;28;20033;-66
2023/04/02 14:42:27;;;;;;;7.37;5.27;;;;;;;;;;5031066;28;20018;-66
2023/04/02 14:45:01;;;;;;;8.20;4.80;;;;;;;;;;5015375;28;20048;-64
2023/04/02 14:47:37;;;;;;;7.70;4.97;;;;;;;;;;5016973;28;20026;-67
2023/04/02 14:50:19;;;;;;;7.13;4.70;;;;;;;;;;5035195;28;20029;-66
2023/04/02 14:52:48;;;;;;;6.87;4.53;;;;;;;;;;5029833;28;20102;-66
2023/04/02 14:55:36;;;;;;;7.70;4.77;;;;;;;;;;5016409;28;20080;-65
2023/04/02 14:58:05;;;;;;;5.30;4.20;;;;;;;;;;5010166;28;20030;-65
2023/04/02 15:00:36;;;;;;;6.73;2.63;;;;;;;;;;5010277;28;20565;-65
2023/04/02 15:03:13;;;;;;;4.67;3.53;;;;;;;;;;5021458;28;20026;-67
2023/04/02 15:05:45;;;;;;;7.13;4.27;;;;;;;;;;5033997;28;20542;-64
2023/04/02 15:08:18;;;;;;;6.27;3.20;;;;;;;;;;5030747;28;20723;-64
2023/04/02 15:10:57;;;;;;;5.37;3.57;;;;;;;;;;5031094;28;20390;-66